createdAt,value
2023-12-22T00:00:01.722Z,98160.38
2023-12-22T00:00:33.633Z,98167.44
2023-12-22T00:01:05.525Z,98169.78
2023-12-22T00:01:37.429Z,98189.34
2023-12-22T00:02:09.307Z,98187.47
2023-12-22T00:02:41.117Z,98194.41
2023-12-22T00:03:12.999Z,98192.63
2023-12-22T00:03:47.070Z,98195.13
2023-12-22T00:04:18.962Z,98189.72
2023-12-22T00:04:50.897Z,98196.66
2023-12-22T00:05:22.741Z,98192.06
2023-12-22T00:05:54.578Z,98190.56
2023-12-22T00:06:26.410Z,98183.00
2023-12-22T00:06:58.293Z,98176.66
2023-12-22T00:07:30.186Z,98162.44
2023-12-22T00:08:02.184Z,98163.59
2023-12-22T00:08:34.044Z,98166.06
2023-12-22T00:09:05.853Z,98176.19
2023-12-22T00:09:37.721Z,98166.88
2023-12-22T00:10:10.598Z,98168.19
2023-12-22T00:10:42.556Z,98178.41
2023-12-22T00:11:14.385Z,98180.19
2023-12-22T00:11:46.213Z,98177.72
2023-12-22T00:12:18.061Z,98192.19
2023-12-22T00:12:49.883Z,98186.91
2023-12-22T00:13:21.805Z,98183.34
2023-12-22T00:13:53.728Z,98186.19
2023-12-22T00:14:25.512Z,98182.78
2023-12-22T00:14:57.332Z,98180.91
2023-12-22T00:15:29.177Z,98180.66
2023-12-22T00:16:01.525Z,98183.16
2023-12-22T00:16:33.435Z,98182.31
2023-12-22T00:17:05.263Z,98186.78
2023-12-22T00:17:37.104Z,98193.03
2023-12-22T00:18:09.119Z,98191.25
2023-12-22T00:18:41.050Z,98195.50
2023-12-22T00:19:15.576Z,98201.84
2023-12-22T00:19:47.535Z,98195.72
2023-12-22T00:20:20.262Z,98199.72
2023-12-22T00:20:52.157Z,98201.38
2023-12-22T00:21:23.986Z,98192.19
2023-12-22T00:21:55.791Z,98200.66
2023-12-22T00:22:27.667Z,98209.16
2023-12-22T00:22:59.514Z,98202.09
2023-12-22T00:23:31.319Z,98206.47
2023-12-22T00:24:03.200Z,98209.88
2023-12-22T00:24:35.088Z,98205.66
2023-12-22T00:25:09.003Z,98210.81
2023-12-22T00:25:40.776Z,98214.00
2023-12-22T00:26:12.712Z,98219.28
2023-12-22T00:26:44.569Z,98215.75
2023-12-22T00:27:16.431Z,98222.81
2023-12-22T00:27:48.490Z,98216.00
2023-12-22T00:28:20.447Z,98221.06
2023-12-22T00:28:52.370Z,98220.13
2023-12-22T00:29:24.260Z,98225.88
2023-12-22T00:29:56.099Z,98232.50
2023-12-22T00:30:27.999Z,98229.22
2023-12-22T00:31:00.059Z,98228.16
2023-12-22T00:31:31.903Z,98247.22
2023-12-22T00:32:03.957Z,98235.31
2023-12-22T00:32:35.737Z,98235.09
2023-12-22T00:33:07.651Z,98233.44
2023-12-22T00:33:39.797Z,98239.34
2023-12-22T00:34:11.650Z,98242.88
2023-12-22T00:34:46.334Z,98236.03
2023-12-22T00:35:18.445Z,98239.34
2023-12-22T00:35:50.302Z,98241.69
2023-12-22T00:36:25.470Z,98235.69
2023-12-22T00:36:57.257Z,98236.50
2023-12-22T00:37:29.097Z,98243.44
2023-12-22T00:38:00.934Z,98244.28
2023-12-22T00:38:33.256Z,98244.50
2023-12-22T00:39:05.383Z,98252.88
2023-12-22T00:39:37.196Z,98238.88
2023-12-22T00:40:10.490Z,98237.13
2023-12-22T00:40:42.294Z,98234.41
2023-12-22T00:41:14.515Z,98238.75
2023-12-22T00:41:46.294Z,98224.38
2023-12-22T00:42:18.069Z,98223.47
2023-12-22T00:42:49.904Z,98226.13
2023-12-22T00:43:21.749Z,98231.94
2023-12-22T00:43:53.591Z,98228.72
2023-12-22T00:44:28.555Z,98224.50
2023-12-22T00:45:00.371Z,98233.91
2023-12-22T00:45:32.377Z,98223.56
2023-12-22T00:46:04.284Z,98229.91
2023-12-22T00:46:36.175Z,98230.63
2023-12-22T00:47:08.009Z,98241.59
2023-12-22T00:47:39.795Z,98245.09
2023-12-22T00:48:11.805Z,98245.97
2023-12-22T00:48:43.695Z,98245.97
2023-12-22T00:49:15.650Z,98245.47
2023-12-22T00:49:47.554Z,98238.19
2023-12-22T00:50:19.549Z,98239.34
2023-12-22T00:50:51.370Z,98247.00
2023-12-22T00:51:23.201Z,98244.63
2023-12-22T00:51:55.040Z,98254.75
2023-12-22T00:52:27.575Z,98252.06
2023-12-22T00:52:59.457Z,98255.59
2023-12-22T00:53:31.289Z,98257.59
2023-12-22T00:54:03.062Z,98258.41
2023-12-22T00:54:34.835Z,98253.22
2023-12-22T00:55:06.749Z,98263.59
2023-12-22T00:55:38.639Z,98273.25
2023-12-22T00:56:10.484Z,98279.34
2023-12-22T00:56:42.350Z,98281.03
2023-12-22T00:57:17.059Z,98293.63
2023-12-22T00:57:49.209Z,98287.22
2023-12-22T00:58:21.229Z,98295.34
2023-12-22T00:58:58.338Z,98298.66
2023-12-22T00:59:36.901Z,98296.31
2023-12-22T01:00:12.072Z,98293.47
2023-12-22T01:00:43.964Z,98303.41
2023-12-22T01:01:15.823Z,98296.78
2023-12-22T01:01:47.886Z,98293.03
2023-12-22T01:02:19.734Z,98287.13
2023-12-22T01:02:51.604Z,98274.16
2023-12-22T01:03:23.611Z,98258.41
2023-12-22T01:03:55.504Z,98249.56
2023-12-22T01:04:27.388Z,98237.44
2023-12-22T01:04:59.331Z,98231.44
2023-12-22T01:05:31.336Z,98226.13
2023-12-22T01:06:03.978Z,98218.13
2023-12-22T01:06:39.908Z,98221.66
2023-12-22T01:07:12.761Z,98212.84
2023-12-22T01:07:44.671Z,98221.31
2023-12-22T01:08:16.532Z,98211.66
2023-12-22T01:08:51.039Z,98208.00
2023-12-22T01:09:22.869Z,98205.19
2023-12-22T01:09:55.012Z,98202.38
2023-12-22T01:10:26.797Z,98203.19
2023-12-22T01:10:58.620Z,98192.72
2023-12-22T01:11:30.512Z,98187.53
2023-12-22T01:12:05.290Z,98189.19
2023-12-22T01:12:37.170Z,98185.88
2023-12-22T01:13:09.021Z,98183.06
2023-12-22T01:13:40.860Z,98188.38
2023-12-22T01:14:14.284Z,98188.47
2023-12-22T01:14:46.426Z,98200.38
2023-12-22T01:15:18.326Z,98202.88
2023-12-22T01:15:50.182Z,98214.63
2023-12-22T01:16:23.624Z,98220.25
2023-12-22T01:16:55.659Z,98226.13
2023-12-22T01:17:27.529Z,98232.63
2023-12-22T01:17:59.536Z,98221.19
2023-12-22T01:18:32.734Z,98219.19
2023-12-22T01:19:04.797Z,98214.88
2023-12-22T01:19:36.714Z,98215.69
2023-12-22T01:20:08.863Z,98218.28
2023-12-22T01:20:40.685Z,98223.47
2023-12-22T01:21:12.526Z,98213.09
2023-12-22T01:21:44.392Z,98225.94
2023-12-22T01:22:16.258Z,98219.31
2023-12-22T01:22:48.158Z,98225.44
2023-12-22T01:23:20.140Z,98220.25
2023-12-22T01:23:51.950Z,98216.59
2023-12-22T01:24:24.581Z,98212.84
2023-12-22T01:24:56.368Z,98214.94
2023-12-22T01:25:28.242Z,98211.41
2023-12-22T01:26:00.095Z,98207.41
2023-12-22T01:26:31.883Z,98210.13
2023-12-22T01:27:03.798Z,98209.19
2023-12-22T01:27:35.577Z,98203.31
2023-12-22T01:28:07.408Z,98198.94
2023-12-22T01:28:39.284Z,98195.41
2023-12-22T01:29:11.249Z,98190.22
2023-12-22T01:29:43.114Z,98192.59
2023-12-22T01:30:14.945Z,98198.81
2023-12-22T01:30:46.769Z,98196.81
2023-12-22T01:31:18.653Z,98201.63
2023-12-22T01:31:50.539Z,98206.81
2023-12-22T01:32:22.337Z,98207.88
2023-12-22T01:32:54.429Z,98216.34
2023-12-22T01:33:26.317Z,98209.53
2023-12-22T01:33:58.163Z,98215.53
2023-12-22T01:34:30.084Z,98210.34
2023-12-22T01:35:10.411Z,98216.59
2023-12-22T01:35:42.218Z,98217.41
2023-12-22T01:36:14.617Z,98222.34
2023-12-22T01:36:46.476Z,98218.13
2023-12-22T01:37:18.290Z,98220.31
2023-12-22T01:37:50.819Z,98211.84
2023-12-22T01:38:22.753Z,98208.22
2023-12-22T01:38:54.566Z,98208.56
2023-12-22T01:39:26.380Z,98223.28
2023-12-22T01:39:58.143Z,98224.34
2023-12-22T01:40:30.035Z,98226.81
2023-12-22T01:41:01.962Z,98224.09
2023-12-22T01:41:33.836Z,98224.69
2023-12-22T01:42:05.653Z,98218.09
2023-12-22T01:42:37.429Z,98221.50
2023-12-22T01:43:09.276Z,98232.00
2023-12-22T01:43:41.147Z,98232.56
2023-12-22T01:44:13.030Z,98239.03
2023-12-22T01:44:44.854Z,98226.94
2023-12-22T01:45:16.750Z,98230.22
2023-12-22T01:45:50.458Z,98229.28
2023-12-22T01:46:22.626Z,98232.81
2023-12-22T01:46:54.907Z,98232.81
2023-12-22T01:47:27.048Z,98236.94
2023-12-22T01:47:59.155Z,98239.31
2023-12-22T01:48:31.797Z,98239.88
2023-12-22T01:49:04.555Z,98251.06
2023-12-22T01:49:36.376Z,98247.84
2023-12-22T01:50:12.132Z,98252.09
2023-12-22T01:50:45.513Z,98253.41
2023-12-22T01:51:17.398Z,98259.41
2023-12-22T01:51:50.530Z,98253.66
2023-12-22T01:52:23.671Z,98248.22
2023-12-22T01:52:55.962Z,98249.88
2023-12-22T01:53:29.143Z,98239.41
2023-12-22T01:54:01.864Z,98248.00
2023-12-22T01:54:33.708Z,98242.81
2023-12-22T01:55:08.046Z,98230.69
2023-12-22T01:55:40.357Z,98240.03
2023-12-22T01:56:12.332Z,98228.84
2023-12-22T01:56:44.326Z,98231.53
2023-12-22T01:57:18.850Z,98236.72
2023-12-22T01:57:51.069Z,98224.69
2023-12-22T01:58:27.252Z,98234.13
2023-12-22T01:59:02.014Z,98225.41
2023-12-22T01:59:35.829Z,98214.13
2023-12-22T02:00:09.573Z,98209.88
2023-12-22T02:00:41.910Z,98220.00
2023-12-22T02:01:14.898Z,98207.88
2023-12-22T02:01:47.249Z,98211.53
2023-12-22T02:02:19.234Z,98212.47
2023-12-22T02:02:51.062Z,98202.09
2023-12-22T02:03:23.948Z,98194.91
2023-12-22T02:03:57.020Z,98184.81
2023-12-22T02:04:31.050Z,98180.56
2023-12-22T02:05:02.906Z,98173.69
2023-12-22T02:05:35.074Z,98165.59
2023-12-22T02:06:07.187Z,98169.13
2023-12-22T02:06:39.229Z,98172.66
2023-12-22T02:07:11.956Z,98159.84
2023-12-22T02:07:44.891Z,98169.97
2023-12-22T02:08:19.361Z,98169.97
2023-12-22T02:08:51.497Z,98166.53
2023-12-22T02:09:23.339Z,98163.00
2023-12-22T02:09:55.139Z,98158.06
2023-12-22T02:10:27.027Z,98154.66
2023-12-22T02:10:58.834Z,98151.34
2023-12-22T02:11:30.678Z,98156.63
2023-12-22T02:12:02.582Z,98158.28
2023-12-22T02:12:34.432Z,98165.84
2023-12-22T02:13:06.738Z,98177.03
2023-12-22T02:13:38.679Z,98180.56
2023-12-22T02:14:10.750Z,98187.28
2023-12-22T02:14:43.150Z,98188.22
2023-12-22T02:15:14.985Z,98198.56
2023-12-22T02:15:51.336Z,98193.41
2023-12-22T02:16:38.988Z,98183.03
2023-12-22T02:17:24.223Z,98182.31
2023-12-22T02:18:27.658Z,98174.56
2023-12-22T02:19:05.367Z,98161.38
2023-12-22T02:19:40.037Z,98139.81
2023-12-22T02:20:12.657Z,98132.06
2023-12-22T02:20:45.524Z,98122.50
2023-12-22T02:21:17.361Z,98133.56
2023-12-22T02:22:08.890Z,98147.81
2023-12-22T02:22:41.786Z,98150.50
2023-12-22T02:23:13.616Z,98155.00
2023-12-22T02:23:45.437Z,98162.75
2023-12-22T02:24:17.229Z,98164.66
2023-12-22T02:24:49.119Z,98163.81
2023-12-22T02:25:21.124Z,98155.94
2023-12-22T02:26:06.472Z,98143.69
2023-12-22T02:26:46.495Z,98145.56
2023-12-22T02:27:41.387Z,98132.97
2023-12-22T02:28:20.380Z,98124.16
2023-12-22T02:28:54.123Z,98120.50
2023-12-22T02:29:27.898Z,98115.44
2023-12-22T02:30:09.491Z,98108.38
2023-12-22T02:31:07.144Z,98115.06
2023-12-22T02:31:46.207Z,98117.22
2023-12-22T02:32:29.327Z,98124.25
2023-12-22T02:33:04.465Z,98127.06
2023-12-22T02:33:40.179Z,98138.00
2023-12-22T02:34:20.596Z,98148.94
2023-12-22T02:34:56.191Z,98154.97
2023-12-22T02:35:30.553Z,98147.09
2023-12-22T02:36:05.509Z,98153.22
2023-12-22T02:36:39.921Z,98142.94
2023-12-22T02:37:12.748Z,98144.84
2023-12-22T02:37:48.316Z,98157.06
2023-12-22T02:38:21.635Z,98158.72
2023-12-22T02:38:56.343Z,98157.41
2023-12-22T02:39:28.176Z,98172.00
2023-12-22T02:40:01.620Z,98170.22
2023-12-22T02:40:35.422Z,98173.06
2023-12-22T02:41:09.559Z,98183.41
2023-12-22T02:41:42.690Z,98180.31
2023-12-22T02:42:14.955Z,98192.56
2023-12-22T02:42:47.451Z,98195.84
2023-12-22T02:43:19.250Z,98200.22
2023-12-22T02:43:51.281Z,98203.97
2023-12-22T02:44:23.518Z,98213.38
2023-12-22T02:44:55.340Z,98203.03
2023-12-22T02:45:27.265Z,98208.22
2023-12-22T02:45:59.074Z,98212.69
2023-12-22T02:46:30.901Z,98208.53
2023-12-22T02:47:02.738Z,98209.28
2023-12-22T02:47:34.606Z,98210.91
2023-12-22T02:48:06.984Z,98203.34
2023-12-22T02:48:38.888Z,98208.53
2023-12-22T02:49:10.946Z,98205.00
2023-12-22T02:49:42.790Z,98211.25
2023-12-22T02:50:16.934Z,98210.41
2023-12-22T02:50:48.819Z,98212.47
2023-12-22T02:51:20.748Z,98211.66
2023-12-22T02:51:52.618Z,98218.47
2023-12-22T02:52:24.469Z,98219.53
2023-12-22T02:52:56.523Z,98205.66
2023-12-22T02:53:28.437Z,98205.44
2023-12-22T02:54:00.269Z,98194.19
2023-12-22T02:54:34.194Z,98201.94
2023-12-22T02:55:06.699Z,98187.41
2023-12-22T02:55:38.585Z,98195.09
2023-12-22T02:56:10.419Z,98194.72
2023-12-22T02:56:43.948Z,98205.88
2023-12-22T02:57:15.762Z,98210.81
2023-12-22T02:57:47.933Z,98209.19
2023-12-22T02:58:20.078Z,98198.81
2023-12-22T02:58:51.956Z,98196.13
2023-12-22T02:59:24.291Z,98193.66
2023-12-22T02:59:56.232Z,98197.06
2023-12-22T03:00:28.025Z,98187.66
2023-12-22T03:00:59.947Z,98190.56
2023-12-22T03:01:31.798Z,98181.97
2023-12-22T03:02:03.765Z,98187.97
2023-12-22T03:02:35.574Z,98186.13
2023-12-22T03:03:07.465Z,98186.81
2023-12-22T03:03:39.318Z,98189.28
2023-12-22T03:04:11.172Z,98182.34
2023-12-22T03:04:43.071Z,98189.28
2023-12-22T03:05:15.113Z,98190.13
2023-12-22T03:05:47.014Z,98198.13
2023-12-22T03:06:18.941Z,98204.00
2023-12-22T03:06:50.802Z,98208.22
2023-12-22T03:07:22.659Z,98213.28
2023-12-22T03:07:54.596Z,98208.22
2023-12-22T03:08:26.441Z,98207.66
2023-12-22T03:08:58.306Z,98207.66
2023-12-22T03:09:30.055Z,98201.53
2023-12-22T03:10:01.832Z,98203.19
2023-12-22T03:10:33.618Z,98209.41
2023-12-22T03:11:05.546Z,98208.19
2023-12-22T03:11:37.389Z,98215.72
2023-12-22T03:12:10.201Z,98214.66
2023-12-22T03:12:42.009Z,98219.53
2023-12-22T03:13:13.806Z,98221.41
2023-12-22T03:13:45.677Z,98222.22
2023-12-22T03:14:17.592Z,98233.66
2023-12-22T03:14:49.356Z,98231.88
2023-12-22T03:15:21.166Z,98227.84
2023-12-22T03:15:52.928Z,98232.78
2023-12-22T03:16:24.749Z,98232.69
2023-12-22T03:16:56.607Z,98224.94
2023-12-22T03:17:28.482Z,98219.53
2023-12-22T03:18:00.393Z,98214.34
2023-12-22T03:18:32.294Z,98216.00
2023-12-22T03:19:04.139Z,98216.22
2023-12-22T03:19:36.093Z,98218.13
2023-12-22T03:20:08.178Z,98229.16
2023-12-22T03:20:40.146Z,98229.16
2023-12-22T03:21:19.764Z,98236.94
2023-12-22T03:21:51.735Z,98243.13
2023-12-22T03:22:26.433Z,98248.22
2023-12-22T03:22:58.234Z,98242.44
2023-12-22T03:23:30.053Z,98254.53
2023-12-22T03:24:01.835Z,98262.44
2023-12-22T03:24:33.674Z,98259.94
2023-12-22T03:25:05.785Z,98258.38
2023-12-22T03:25:37.610Z,98265.31
2023-12-22T03:26:09.545Z,98268.75
2023-12-22T03:26:41.352Z,98265.94
2023-12-22T03:27:17.487Z,98263.47
2023-12-22T03:27:49.583Z,98265.66
2023-12-22T03:28:21.557Z,98261.50
2023-12-22T03:28:53.452Z,98269.09
2023-12-22T03:29:25.256Z,98271.88
2023-12-22T03:29:57.080Z,98276.31
2023-12-22T03:30:28.908Z,98280.91
2023-12-22T03:31:00.726Z,98268.06
2023-12-22T03:31:32.623Z,98273.44
2023-12-22T03:32:04.755Z,98274.16
2023-12-22T03:32:36.554Z,98264.63
2023-12-22T03:33:08.442Z,98274.78
2023-12-22T03:33:40.341Z,98263.38
2023-12-22T03:34:12.676Z,98262.78
2023-12-22T03:34:44.516Z,98257.63
2023-12-22T03:35:16.364Z,98263.81
2023-12-22T03:35:48.180Z,98258.44
2023-12-22T03:36:19.991Z,98250.69
2023-12-22T03:36:51.751Z,98255.63
2023-12-22T03:37:23.645Z,98248.56
2023-12-22T03:37:55.534Z,98253.75
2023-12-22T03:38:27.344Z,98253.97
2023-12-22T03:38:59.323Z,98249.63
2023-12-22T03:39:31.224Z,98250.44
2023-12-22T03:40:03.157Z,98238.47
2023-12-22T03:40:35.141Z,98245.06
2023-12-22T03:41:07.036Z,98245.78
2023-12-22T03:41:38.837Z,98238.03
2023-12-22T03:42:10.874Z,98244.75
2023-12-22T03:42:42.633Z,98249.91
2023-12-22T03:43:14.378Z,98249.78
2023-12-22T03:43:46.221Z,98240.50
2023-12-22T03:44:18.312Z,98242.03
2023-12-22T03:44:50.113Z,98235.22
2023-12-22T03:45:21.936Z,98233.25
2023-12-22T03:45:53.690Z,98238.31
2023-12-22T03:46:25.812Z,98232.50
2023-12-22T03:46:57.626Z,98232.63
2023-12-22T03:47:29.477Z,98241.09
2023-12-22T03:48:01.335Z,98240.19
2023-12-22T03:48:33.186Z,98239.44
2023-12-22T03:49:05.456Z,98237.59
2023-12-22T03:49:37.413Z,98237.69
2023-12-22T03:50:09.918Z,98238.63
2023-12-22T03:50:41.757Z,98236.66
2023-12-22T03:51:14.432Z,98246.28
2023-12-22T03:51:46.263Z,98249.59
2023-12-22T03:52:18.103Z,98249.59
2023-12-22T03:52:50.041Z,98247.31
2023-12-22T03:53:21.927Z,98260.38
2023-12-22T03:53:53.718Z,98254.97
2023-12-22T03:54:25.564Z,98260.16
2023-12-22T03:54:57.385Z,98263.38
2023-12-22T03:55:29.226Z,98256.84
2023-12-22T03:56:01.077Z,98258.50
2023-12-22T03:56:33.105Z,98262.72
2023-12-22T03:57:04.981Z,98269.38
2023-12-22T03:57:36.743Z,98266.16
2023-12-22T03:58:08.839Z,98263.78
2023-12-22T03:58:40.723Z,98265.44
2023-12-22T03:59:12.587Z,98260.38
2023-12-22T03:59:44.762Z,98265.31
2023-12-22T04:00:17.699Z,98262.03
2023-12-22T04:00:49.660Z,98254.16
2023-12-22T04:01:21.543Z,98253.22
2023-12-22T04:01:58.340Z,98257.78
2023-12-22T04:02:30.195Z,98254.25
2023-12-22T04:03:02.118Z,98258.72
2023-12-22T04:03:34.133Z,98266.59
2023-12-22T04:04:05.934Z,98265.56
2023-12-22T04:04:41.077Z,98273.31
2023-12-22T04:05:13.338Z,98269.28
2023-12-22T04:05:45.271Z,98267.44
2023-12-22T04:06:17.196Z,98272.59
2023-12-22T04:06:49.034Z,98274.38
2023-12-22T04:07:20.865Z,98275.63
2023-12-22T04:07:52.806Z,98277.56
2023-12-22T04:08:24.730Z,98277.69
2023-12-22T04:08:56.563Z,98271.47
2023-12-22T04:09:28.404Z,98275.72
2023-12-22T04:10:00.449Z,98266.28
2023-12-22T04:10:32.509Z,98275.09
2023-12-22T04:11:04.763Z,98274.16
2023-12-22T04:11:40.540Z,98275.00
2023-12-22T04:12:12.698Z,98266.75
2023-12-22T04:12:44.808Z,98276.88
2023-12-22T04:13:16.633Z,98278.63
2023-12-22T04:13:48.583Z,98276.25
2023-12-22T04:14:20.480Z,98276.16
2023-12-22T04:14:53.305Z,98276.97
2023-12-22T04:15:27.587Z,98270.16
2023-12-22T04:15:59.370Z,98269.22
2023-12-22T04:16:31.213Z,98270.16
2023-12-22T04:17:03.109Z,98275.94
2023-12-22T04:17:34.951Z,98272.50
2023-12-22T04:18:06.873Z,98274.16
2023-12-22T04:18:38.941Z,98283.56
2023-12-22T04:19:12.321Z,98287.94
2023-12-22T04:19:44.564Z,98289.50
2023-12-22T04:20:17.108Z,98288.56
2023-12-22T04:20:50.966Z,98295.38
2023-12-22T04:21:22.773Z,98302.31
2023-12-22T04:21:54.570Z,98301.69
2023-12-22T04:22:26.376Z,98305.09
2023-12-22T04:22:58.262Z,98300.56
2023-12-22T04:23:30.088Z,98299.50
2023-12-22T04:24:01.940Z,98301.06
2023-12-22T04:24:33.750Z,98302.91
2023-12-22T04:25:07.371Z,98303.03
2023-12-22T04:25:39.309Z,98303.84
2023-12-22T04:26:11.174Z,98301.50
2023-12-22T04:26:42.977Z,98305.59
2023-12-22T04:27:14.802Z,98295.25
2023-12-22T04:27:46.902Z,98297.03
2023-12-22T04:28:18.915Z,98301.97
2023-12-22T04:28:50.815Z,98300.94
2023-12-22T04:29:22.695Z,98294.13
2023-12-22T04:29:54.537Z,98297.66
2023-12-22T04:30:29.324Z,98297.84
2023-12-22T04:31:02.400Z,98289.97
2023-12-22T04:31:34.355Z,98286.44
2023-12-22T04:32:06.366Z,98288.97
2023-12-22T04:32:38.319Z,98282.97
2023-12-22T04:33:10.343Z,98289.88
2023-12-22T04:33:42.204Z,98296.78
2023-12-22T04:34:17.095Z,98295.16
2023-12-22T04:34:49.083Z,98291.63
2023-12-22T04:35:20.950Z,98297.13
2023-12-22T04:35:52.789Z,98286.91
2023-12-22T04:36:24.673Z,98289.38
2023-12-22T04:36:56.534Z,98293.72
2023-12-22T04:37:28.431Z,98290.44
2023-12-22T04:38:00.616Z,98293.00
2023-12-22T04:38:32.471Z,98299.72
2023-12-22T04:39:04.293Z,98293.63
2023-12-22T04:39:36.143Z,98297.97
2023-12-22T04:40:08.339Z,98303.97
2023-12-22T04:40:40.208Z,98303.25
2023-12-22T04:41:12.025Z,98299.84
2023-12-22T04:41:43.834Z,98297.44
2023-12-22T04:42:15.758Z,98305.22
2023-12-22T04:42:47.883Z,98298.28
2023-12-22T04:43:19.814Z,98298.06
2023-12-22T04:43:51.671Z,98299.84
2023-12-22T04:44:23.448Z,98297.13
2023-12-22T04:44:55.243Z,98303.25
2023-12-22T04:45:27.040Z,98302.44
2023-12-22T04:45:59.043Z,98298.91
2023-12-22T04:47:03.274Z,98307.50
2023-12-22T04:47:36.972Z,98309.38
2023-12-22T04:48:08.935Z,98307.59
2023-12-22T04:48:41.089Z,98313.25
2023-12-22T04:49:13.099Z,98313.19
2023-12-22T04:49:45.245Z,98303.97
2023-12-22T04:50:17.107Z,98309.97
2023-12-22T04:50:48.943Z,98312.78
2023-12-22T04:51:20.719Z,98305.72
2023-12-22T04:51:52.588Z,98307.16
2023-12-22T04:52:24.774Z,98304.47
2023-12-22T04:52:56.789Z,98302.72
2023-12-22T04:53:28.823Z,98300.13
2023-12-22T04:54:00.735Z,98297.66
2023-12-22T04:54:32.572Z,98304.38
2023-12-22T04:55:04.620Z,98296.50
2023-12-22T04:55:36.495Z,98298.25
2023-12-22T04:56:08.272Z,98293.91
2023-12-22T04:56:40.091Z,98296.59
2023-12-22T04:57:11.890Z,98298.38
2023-12-22T04:57:43.697Z,98295.97
2023-12-22T04:58:15.514Z,98298.47
2023-12-22T04:58:47.364Z,98301.16
2023-12-22T04:59:19.215Z,98302.19
2023-12-22T04:59:51.040Z,98300.31
2023-12-22T05:00:22.890Z,98288.13
2023-12-22T05:00:54.924Z,98295.88
2023-12-22T05:01:26.759Z,98292.56
2023-12-22T05:01:59.016Z,98292.47
2023-12-22T05:02:30.857Z,98299.72
2023-12-22T05:03:02.896Z,98301.50
2023-12-22T05:03:34.831Z,98297.13
2023-12-22T05:04:09.962Z,98306.56
2023-12-22T05:04:43.568Z,98305.72
2023-12-22T05:05:15.481Z,98302.44
2023-12-22T05:05:47.872Z,98299.00
2023-12-22T05:06:19.701Z,98299.09
2023-12-22T05:06:51.508Z,98302.84
2023-12-22T05:07:23.438Z,98297.03
2023-12-22T05:07:55.274Z,98301.63
2023-12-22T05:08:27.086Z,98304.44
2023-12-22T05:08:58.960Z,98299.44
2023-12-22T05:09:30.783Z,98307.53
2023-12-22T05:10:02.678Z,98299.78
2023-12-22T05:10:34.551Z,98316.84
2023-12-22T05:11:06.453Z,98314.13
2023-12-22T05:11:38.474Z,98310.00
2023-12-22T05:12:10.462Z,98317.03
2023-12-22T05:12:42.283Z,98313.53
2023-12-22T05:13:14.146Z,98318.59
2023-12-22T05:13:46.172Z,98321.28
2023-12-22T05:14:18.097Z,98327.38
2023-12-22T05:14:51.408Z,98330.88
2023-12-22T05:15:23.204Z,98338.16
2023-12-22T05:15:56.071Z,98339.91
2023-12-22T05:16:27.903Z,98334.00
2023-12-22T05:16:59.740Z,98335.88
2023-12-22T05:17:31.576Z,98339.38
2023-12-22T05:18:03.598Z,98335.88
2023-12-22T05:18:35.559Z,98337.09
2023-12-22T05:19:07.562Z,98337.22
2023-12-22T05:19:39.471Z,98339.91
2023-12-22T05:20:11.536Z,98331.22
2023-12-22T05:20:44.745Z,98341.34
2023-12-22T05:21:16.572Z,98344.97
2023-12-22T05:21:50.514Z,98343.22
2023-12-22T05:22:22.363Z,98341.56
2023-12-22T05:22:54.241Z,98347.44
2023-12-22T05:23:26.159Z,98349.19
2023-12-22T05:23:57.984Z,98344.97
2023-12-22T05:24:29.819Z,98351.91
2023-12-22T05:25:01.590Z,98352.13
2023-12-22T05:25:33.633Z,98349.00
2023-12-22T05:26:05.536Z,98350.66
2023-12-22T05:26:37.387Z,98351.47
2023-12-22T05:27:09.369Z,98349.22
2023-12-22T05:27:44.231Z,98352.69
2023-12-22T05:28:16.095Z,98352.81
2023-12-22T05:28:48.300Z,98351.28
2023-12-22T05:29:20.846Z,98347.75
2023-12-22T05:29:52.726Z,98359.31
2023-12-22T05:30:24.514Z,98356.13
2023-12-22T05:30:56.408Z,98354.34
2023-12-22T05:31:28.955Z,98364.69
2023-12-22T05:32:01.295Z,98363.75
2023-12-22T05:32:33.330Z,98360.97
2023-12-22T05:33:05.202Z,98360.13
2023-12-22T05:33:37.029Z,98360.25
2023-12-22T05:34:11.464Z,98364.47
2023-12-22T05:34:43.502Z,98365.41
2023-12-22T05:35:15.488Z,98358.50
2023-12-22T05:35:47.490Z,98359.72
2023-12-22T05:36:19.365Z,98362.28
2023-12-22T05:36:51.114Z,98362.41
2023-12-22T05:37:22.919Z,98366.84
2023-12-22T05:37:54.874Z,98359.94
2023-12-22T05:38:26.731Z,98358.16
2023-12-22T05:38:58.539Z,98369.16
2023-12-22T05:39:30.362Z,98363.22
2023-12-22T05:40:02.162Z,98363.16
2023-12-22T05:40:34.183Z,98370.91
2023-12-22T05:41:07.636Z,98370.38
2023-12-22T05:41:39.486Z,98370.38
2023-12-22T05:42:11.318Z,98368.91
2023-12-22T05:42:43.099Z,98374.81
2023-12-22T05:43:15.772Z,98366.31
2023-12-22T05:43:47.674Z,98373.34
2023-12-22T05:44:19.479Z,98367.47
2023-12-22T05:44:51.594Z,98375.94
2023-12-22T05:45:23.395Z,98366.31
2023-12-22T05:45:55.345Z,98379.22
2023-12-22T05:46:27.247Z,98379.34
2023-12-22T05:46:59.191Z,98381.31
2023-12-22T05:47:31.286Z,98374.50
2023-12-22T05:48:03.297Z,98378.72
2023-12-22T05:48:35.337Z,98374.56
2023-12-22T05:49:07.441Z,98377.25
2023-12-22T05:49:42.237Z,98384.28
2023-12-22T05:50:14.312Z,98381.88
2023-12-22T05:50:46.245Z,98381.16
2023-12-22T05:51:18.094Z,98388.19
2023-12-22T05:51:49.901Z,98382.19
2023-12-22T05:52:21.766Z,98393.53
2023-12-22T05:52:53.662Z,98385.78
2023-12-22T05:53:25.549Z,98387.34
2023-12-22T05:53:57.336Z,98389.28
2023-12-22T05:54:29.096Z,98384.97
2023-12-22T05:55:00.927Z,98393.75
2023-12-22T05:55:32.983Z,98396.31
2023-12-22T05:56:05.153Z,98402.41
2023-12-22T05:56:36.972Z,98399.94
2023-12-22T05:57:08.756Z,98404.28
2023-12-22T05:57:40.587Z,98398.91
2023-12-22T05:58:12.404Z,98407.38
2023-12-22T05:58:44.246Z,98407.38
2023-12-22T05:59:16.076Z,98408.06
2023-12-22T05:59:47.940Z,98411.59
2023-12-22T06:00:19.874Z,98408.78
2023-12-22T06:00:51.767Z,98412.31
2023-12-22T06:01:23.686Z,98411.28
2023-12-22T06:01:55.669Z,98412.97
2023-12-22T06:02:27.531Z,98409.63
2023-12-22T06:02:59.359Z,98407.97
2023-12-22T06:03:31.218Z,98411.69
2023-12-22T06:04:03.111Z,98418.69
2023-12-22T06:04:36.100Z,98414.25
2023-12-22T06:05:08.392Z,98420.34
2023-12-22T06:05:40.543Z,98409.28
2023-12-22T06:06:12.855Z,98409.28
2023-12-22T06:06:44.760Z,98410.22
2023-12-22T06:07:16.746Z,98413.72
2023-12-22T06:07:48.900Z,98409.28
2023-12-22T06:08:20.964Z,98414.44
2023-12-22T06:08:52.746Z,98410.00
2023-12-22T06:09:24.592Z,98411.84
2023-12-22T06:09:56.476Z,98409.28
2023-12-22T06:10:28.716Z,98414.34
2023-12-22T06:11:00.624Z,98415.38
2023-12-22T06:11:32.536Z,98419.59
2023-12-22T06:12:04.536Z,98425.81
2023-12-22T06:12:37.518Z,98427.34
2023-12-22T06:13:09.307Z,98428.94
2023-12-22T06:13:41.184Z,98425.69
2023-12-22T06:14:13.045Z,98431.59
2023-12-22T06:14:44.913Z,98427.34
2023-12-22T06:15:16.797Z,98432.53
2023-12-22T06:15:48.579Z,98434.38
2023-12-22T06:16:21.742Z,98433.56
2023-12-22T06:16:54.960Z,98439.44
2023-12-22T06:17:26.964Z,98436.22
2023-12-22T06:17:59.315Z,98441.41
2023-12-22T06:18:31.204Z,98438.88
2023-12-22T06:19:03.116Z,98443.97
2023-12-22T06:19:36.982Z,98448.00
2023-12-22T06:20:09.396Z,98444.91
2023-12-22T06:20:41.283Z,98443.06
2023-12-22T06:21:13.392Z,98445.53
2023-12-22T06:21:45.349Z,98449.31
2023-12-22T06:22:17.177Z,98447.38